createdAt,value
2019-05-19T00:01:33.776Z,89.00
2019-05-19T00:04:03.191Z,89.60
2019-05-19T00:06:32.590Z,90.50
2019-05-19T00:09:02.961Z,90.50
2019-05-19T00:11:31.802Z,90.90
2019-05-19T00:14:01.174Z,91.10
2019-05-19T00:16:30.072Z,91.70
2019-05-19T00:18:58.841Z,91.80
2019-05-19T00:21:27.668Z,91.90
2019-05-19T00:23:59.756Z,92.20
2019-05-19T00:26:27.865Z,92.00
2019-05-19T00:28:56.869Z,92.00
2019-05-19T00:31:25.852Z,92.30
2019-05-19T00:33:54.689Z,92.30
2019-05-19T00:36:23.699Z,92.30
2019-05-19T00:38:52.501Z,92.40
2019-05-19T00:41:21.398Z,92.70
2019-05-19T00:43:50.786Z,92.80
2019-05-19T00:46:19.642Z,92.80
2019-05-19T00:48:48.421Z,93.00
2019-05-19T00:51:18.129Z,92.90
2019-05-19T00:53:47.069Z,93.20
2019-05-19T00:56:16.181Z,93.50
2019-05-19T00:58:47.503Z,94.00
2019-05-19T01:01:17.674Z,94.10
2019-05-19T01:03:46.470Z,94.10
2019-05-19T01:06:15.272Z,94.30
2019-05-19T01:08:44.025Z,94.60
2019-05-19T01:11:12.838Z,94.60
2019-05-19T01:13:42.621Z,94.80
2019-05-19T01:16:11.858Z,94.50
2019-05-19T01:18:40.644Z,94.40
2019-05-19T01:21:09.480Z,94.40
2019-05-19T01:23:38.312Z,94.50
2019-05-19T01:26:07.125Z,94.40
2019-05-19T01:28:35.967Z,94.30
2019-05-19T01:31:04.921Z,94.40
2019-05-19T01:33:35.411Z,94.60
2019-05-19T01:36:04.999Z,94.70
2019-05-19T01:38:34.517Z,94.80
2019-05-19T01:41:03.348Z,95.30
2019-05-19T01:43:33.797Z,95.10
2019-05-19T01:46:02.665Z,95.20
2019-05-19T01:48:31.454Z,95.30
2019-05-19T01:51:00.231Z,95.50
2019-05-19T01:53:29.802Z,95.50
2019-05-19T01:55:58.630Z,95.50
2019-05-19T01:58:27.479Z,95.40
2019-05-19T02:00:56.279Z,95.30
2019-05-19T02:03:25.123Z,95.40
2019-05-19T02:05:54.036Z,95.60
2019-05-19T02:08:23.999Z,95.70
2019-05-19T02:10:52.869Z,95.70
2019-05-19T02:13:22.486Z,96.00
2019-05-19T02:15:52.118Z,96.10
2019-05-19T02:18:20.935Z,96.10
2019-05-19T02:20:51.353Z,95.80
2019-05-19T02:23:21.505Z,95.90
2019-05-19T02:25:50.365Z,96.10
2019-05-19T02:28:19.194Z,96.20
2019-05-19T02:30:48.738Z,96.20
2019-05-19T02:33:17.617Z,96.20
2019-05-19T02:35:46.344Z,96.20
2019-05-19T02:38:16.584Z,96.70
2019-05-19T02:40:48.236Z,96.70
2019-05-19T02:43:19.120Z,96.70
2019-05-19T02:45:49.789Z,96.80
2019-05-19T02:48:21.088Z,96.80
2019-05-19T02:50:52.969Z,96.70
2019-05-19T02:53:22.867Z,96.70
2019-05-19T02:55:53.489Z,96.80
2019-05-19T02:58:22.587Z,96.90
2019-05-19T03:00:51.425Z,97.00
2019-05-19T03:03:20.198Z,97.00
2019-05-19T03:05:48.989Z,96.90
2019-05-19T03:08:18.138Z,96.90
2019-05-19T03:10:46.939Z,96.90
2019-05-19T03:13:15.718Z,96.90
2019-05-19T03:15:44.530Z,97.00
2019-05-19T03:18:13.944Z,97.00
2019-05-19T03:20:42.917Z,96.90
2019-05-19T03:23:11.768Z,97.00
2019-05-19T03:25:44.091Z,97.00
2019-05-19T03:28:11.235Z,97.00
2019-05-19T03:30:40.369Z,97.00
2019-05-19T03:33:10.810Z,97.00
2019-05-19T03:35:39.627Z,97.10
2019-05-19T03:38:08.445Z,97.10
2019-05-19T03:40:37.756Z,97.20
2019-05-19T03:43:06.548Z,97.30
2019-05-19T03:45:35.307Z,97.30
2019-05-19T03:48:05.006Z,97.40
2019-05-19T03:50:33.790Z,97.40
2019-05-19T03:53:02.595Z,97.40
2019-05-19T03:55:31.401Z,97.40
2019-05-19T03:58:00.202Z,97.30
2019-05-19T04:00:29.016Z,97.30
2019-05-19T04:02:57.733Z,97.30
2019-05-19T04:05:26.554Z,97.30
2019-05-19T04:07:55.307Z,97.30
2019-05-19T04:10:24.112Z,97.30
2019-05-19T04:12:52.936Z,97.50
2019-05-19T04:15:21.729Z,97.50
2019-05-19T04:17:50.590Z,97.60
2019-05-19T04:20:19.659Z,97.10
2019-05-19T04:22:49.229Z,97.30
2019-05-19T04:25:18.109Z,97.50
2019-05-19T04:27:46.894Z,97.70
2019-05-19T04:30:16.017Z,97.90
2019-05-19T04:32:46.470Z,97.90
2019-05-19T04:35:15.281Z,97.90
2019-05-19T04:37:44.147Z,98.00
2019-05-19T04:40:14.136Z,98.00
2019-05-19T04:42:43.010Z,98.10
2019-05-19T04:45:12.025Z,98.30
2019-05-19T04:47:40.709Z,98.40
2019-05-19T04:50:10.042Z,98.50
2019-05-19T04:52:38.752Z,98.30
2019-05-19T04:55:08.027Z,98.10
2019-05-19T04:57:37.284Z,97.90
2019-05-19T05:00:07.498Z,97.00
2019-05-19T05:02:36.544Z,95.90
2019-05-19T05:05:06.635Z,93.80
2019-05-19T05:07:35.395Z,91.70
2019-05-19T05:10:05.261Z,87.80
2019-05-19T05:12:34.533Z,82.20
2019-05-19T05:15:03.593Z,74.80
2019-05-19T05:17:32.356Z,70.40
2019-05-19T05:20:01.297Z,67.80
2019-05-19T05:22:30.232Z,60.10
2019-05-19T05:24:58.936Z,56.10
2019-05-19T05:27:27.755Z,54.70
2019-05-19T05:29:57.733Z,55.00
2019-05-19T05:32:26.608Z,55.50
2019-05-19T05:34:55.411Z,53.90
2019-05-19T05:37:24.339Z,48.10
2019-05-19T05:39:53.344Z,43.30
2019-05-19T05:42:22.170Z,33.40
2019-05-19T05:44:51.375Z,31.70
2019-05-19T05:47:20.424Z,31.90
2019-05-19T05:49:50.316Z,33.60
2019-05-19T05:52:19.346Z,40.10
2019-05-19T05:54:48.754Z,44.60
2019-05-19T05:57:17.645Z,48.50
2019-05-19T05:59:46.422Z,52.70
2019-05-19T06:02:15.081Z,55.30
2019-05-19T06:04:43.932Z,56.90
2019-05-19T06:07:12.792Z,59.80
2019-05-19T06:09:44.603Z,61.30
2019-05-19T06:12:13.373Z,61.20
2019-05-19T06:14:42.262Z,61.30
2019-05-19T06:17:11.183Z,59.00
2019-05-19T06:19:40.031Z,60.10
2019-05-19T06:22:08.880Z,59.60
2019-05-19T06:24:38.404Z,59.10
2019-05-19T06:27:07.207Z,56.20
2019-05-19T06:29:36.043Z,56.80
2019-05-19T06:32:06.456Z,54.60
2019-05-19T06:34:35.768Z,56.40
2019-05-19T06:37:04.573Z,52.20
2019-05-19T06:39:33.379Z,51.30
2019-05-19T06:42:02.905Z,45.60
2019-05-19T06:44:31.663Z,42.80
2019-05-19T06:47:00.452Z,38.10
2019-05-19T06:49:29.364Z,39.10
2019-05-19T06:51:58.471Z,38.90
2019-05-19T06:54:27.400Z,41.40
2019-05-19T06:56:56.233Z,37.70
2019-05-19T06:59:25.046Z,37.30
2019-05-19T07:01:53.828Z,34.80
2019-05-19T07:04:22.603Z,33.00
2019-05-19T07:06:51.458Z,28.80
2019-05-19T07:09:20.696Z,26.20
2019-05-19T07:11:49.604Z,26.90
2019-05-19T07:14:18.456Z,24.40
2019-05-19T07:16:47.628Z,22.80
2019-05-19T07:19:16.370Z,21.80
2019-05-19T07:21:45.228Z,26.80
2019-05-19T07:24:14.035Z,28.80
2019-05-19T07:26:43.411Z,30.30
2019-05-19T07:29:12.341Z,25.70
2019-05-19T07:31:41.828Z,22.50
2019-05-19T07:34:11.292Z,23.40
2019-05-19T07:36:40.711Z,23.00
2019-05-19T07:39:09.519Z,20.80
2019-05-19T07:41:38.341Z,17.70
2019-05-19T07:44:07.151Z,11.80
2019-05-19T07:46:37.312Z,9.00
2019-05-19T07:49:07.569Z,7.80
2019-05-19T07:51:36.431Z,7.10
2019-05-19T07:54:05.323Z,7.30
2019-05-19T07:56:34.248Z,6.30
2019-05-19T07:59:03.181Z,6.50
2019-05-19T08:01:31.986Z,7.90
2019-05-19T08:04:00.809Z,7.70
2019-05-19T08:06:29.596Z,7.10
2019-05-19T08:08:59.871Z,7.60
2019-05-19T08:11:30.041Z,7.80
2019-05-19T08:13:59.372Z,8.50
2019-05-19T08:16:28.192Z,7.70
2019-05-19T08:18:57.010Z,7.90
2019-05-19T08:21:25.812Z,6.50
2019-05-19T08:24:00.487Z,4.90
2019-05-19T08:26:26.213Z,7.00
2019-05-19T08:28:55.105Z,7.20
2019-05-19T08:31:24.026Z,5.60
2019-05-19T08:33:52.868Z,3.90
2019-05-19T08:36:21.750Z,4.10
2019-05-19T08:38:50.592Z,4.90
2019-05-19T08:41:19.480Z,4.30
2019-05-19T08:43:48.319Z,5.40
2019-05-19T08:46:17.865Z,3.30
2019-05-19T08:48:46.637Z,1.80
2019-05-19T08:51:15.524Z,1.80
2019-05-19T08:53:44.912Z,1.60
2019-05-19T08:56:16.354Z,2.10
2019-05-19T08:58:45.222Z,2.80
2019-05-19T09:01:14.095Z,4.30
2019-05-19T09:03:44.252Z,5.10
2019-05-19T09:06:13.112Z,4.70
2019-05-19T09:08:41.875Z,3.80
2019-05-19T09:11:10.901Z,3.30
2019-05-19T09:13:41.464Z,2.50
2019-05-19T09:16:10.548Z,2.30
2019-05-19T09:18:39.410Z,2.70
2019-05-19T09:21:09.688Z,4.30
2019-05-19T09:23:38.475Z,4.50
2019-05-19T09:26:08.844Z,3.90
2019-05-19T09:28:37.624Z,2.30
2019-05-19T09:31:08.075Z,1.00
2019-05-19T09:33:36.839Z,1.00
2019-05-19T09:36:05.782Z,1.00
2019-05-19T09:38:36.184Z,1.00
2019-05-19T09:41:05.658Z,1.50
2019-05-19T09:43:34.459Z,1.60
2019-05-19T09:46:05.622Z,1.60
2019-05-19T09:48:34.608Z,1.60
2019-05-19T09:51:03.521Z,2.10
2019-05-19T09:53:32.368Z,1.80
2019-05-19T09:56:01.248Z,1.30
2019-05-19T09:58:30.116Z,2.30
2019-05-19T10:00:59.143Z,1.00
2019-05-19T10:03:28.009Z,1.00
2019-05-19T10:05:56.924Z,1.80
2019-05-19T10:08:27.275Z,1.80
2019-05-19T10:10:58.821Z,1.00
2019-05-19T10:13:27.742Z,1.00
2019-05-19T10:15:57.092Z,1.00
2019-05-19T10:18:25.964Z,1.60
2019-05-19T10:20:54.764Z,1.00
2019-05-19T10:23:23.599Z,1.00
2019-05-19T10:25:52.412Z,1.00
2019-05-19T10:28:21.251Z,1.00
2019-05-19T10:30:51.559Z,1.00
2019-05-19T10:33:21.715Z,1.00
2019-05-19T10:35:51.301Z,1.00
2019-05-19T10:38:20.186Z,1.00
2019-05-19T10:40:49.015Z,1.00
2019-05-19T10:43:17.800Z,1.00
2019-05-19T10:45:48.183Z,1.00
2019-05-19T10:48:17.041Z,1.00
2019-05-19T10:50:46.619Z,1.00
2019-05-19T10:53:15.725Z,1.00
2019-05-19T10:55:44.620Z,1.00
2019-05-19T10:58:13.497Z,1.00
2019-05-19T11:00:42.416Z,1.00
2019-05-19T11:03:11.302Z,1.00
2019-05-19T11:05:40.127Z,1.00
2019-05-19T11:08:08.859Z,1.00
2019-05-19T11:10:37.742Z,1.00
2019-05-19T11:13:06.502Z,1.00
2019-05-19T11:15:35.429Z,1.00
2019-05-19T11:18:06.472Z,1.00
2019-05-19T11:20:34.893Z,1.00
2019-05-19T11:23:03.717Z,1.00
2019-05-19T11:25:34.313Z,1.00
2019-05-19T11:28:02.999Z,1.00
2019-05-19T11:30:31.926Z,1.00
2019-05-19T11:33:00.691Z,1.00
2019-05-19T11:35:29.565Z,1.00
2019-05-19T11:37:59.005Z,1.00
2019-05-19T11:40:27.889Z,1.00
2019-05-19T11:42:56.713Z,1.00
2019-05-19T11:45:25.576Z,1.00
2019-05-19T11:47:55.833Z,1.00
2019-05-19T11:50:26.261Z,1.00
2019-05-19T11:52:56.275Z,1.00
2019-05-19T11:55:25.171Z,1.00
2019-05-19T11:57:54.039Z,1.00
2019-05-19T12:00:22.916Z,1.00
2019-05-19T12:02:51.770Z,1.00
2019-05-19T12:05:20.698Z,1.00
2019-05-19T12:07:50.347Z,1.00
2019-05-19T12:10:19.725Z,1.00
2019-05-19T12:12:48.644Z,1.00
2019-05-19T12:15:18.835Z,1.00
2019-05-19T12:17:47.731Z,1.00
2019-05-19T12:20:16.756Z,1.00
2019-05-19T12:22:46.656Z,1.00
2019-05-19T12:25:15.914Z,1.00
2019-05-19T12:27:44.718Z,1.00
2019-05-19T12:30:19.095Z,1.50
2019-05-19T12:32:48.336Z,1.40
2019-05-19T12:35:17.785Z,2.10
2019-05-19T12:37:47.455Z,2.70
2019-05-19T12:40:16.340Z,6.10
2019-05-19T12:42:45.319Z,8.00
2019-05-19T12:45:15.092Z,12.10
2019-05-19T12:47:43.909Z,6.90
2019-05-19T12:50:13.185Z,6.60
2019-05-19T12:52:42.157Z,12.50
2019-05-19T12:55:11.879Z,17.60
2019-05-19T12:57:40.841Z,18.10
2019-05-19T13:00:10.076Z,17.60
2019-05-19T13:02:38.877Z,15.90
2019-05-19T13:05:08.196Z,16.40
2019-05-19T13:07:37.095Z,19.30
2019-05-19T13:10:09.425Z,19.00
2019-05-19T13:12:38.317Z,19.00
2019-05-19T13:15:10.228Z,23.70
2019-05-19T13:17:39.042Z,32.10
2019-05-19T13:20:08.994Z,42.70
2019-05-19T13:22:38.073Z,49.30
2019-05-19T13:25:07.600Z,54.40
2019-05-19T13:27:36.358Z,62.60
2019-05-19T13:30:07.994Z,66.70
2019-05-19T13:32:36.887Z,67.50
2019-05-19T13:35:06.842Z,69.00
2019-05-19T13:37:35.632Z,69.20
2019-05-19T13:40:06.766Z,70.00
2019-05-19T13:42:35.564Z,75.90
2019-05-19T13:45:06.996Z,68.60
2019-05-19T13:47:36.159Z,72.80
2019-05-19T13:50:07.395Z,67.90
2019-05-19T13:52:36.202Z,84.70
2019-05-19T13:55:09.171Z,90.70
2019-05-19T13:57:39.551Z,61.30
2019-05-19T14:00:10.597Z,63.80
2019-05-19T14:02:39.964Z,66.50
2019-05-19T14:05:08.952Z,77.60
2019-05-19T14:07:37.892Z,73.50
2019-05-19T14:10:07.850Z,86.10
2019-05-19T14:12:36.778Z,87.80
2019-05-19T14:15:08.349Z,89.10
2019-05-19T14:17:41.970Z,84.50
2019-05-19T14:20:13.560Z,83.50
2019-05-19T14:22:42.573Z,87.20
2019-05-19T14:25:11.635Z,88.90
2019-05-19T14:27:40.479Z,88.80
2019-05-19T14:30:10.923Z,88.90
2019-05-19T14:32:39.909Z,79.50
2019-05-19T14:35:08.828Z,81.00
2019-05-19T14:37:38.431Z,80.30
2019-05-19T14:40:08.396Z,78.70
2019-05-19T14:42:40.040Z,76.10
2019-05-19T14:45:10.446Z,76.60
2019-05-19T14:47:39.327Z,75.40
2019-05-19T14:50:08.863Z,73.70
2019-05-19T14:52:37.816Z,78.10
2019-05-19T14:55:08.244Z,79.50
2019-05-19T14:57:44.872Z,77.90
2019-05-19T15:00:10.085Z,77.10
2019-05-19T15:02:38.967Z,78.80
2019-05-19T15:05:08.114Z,77.90
2019-05-19T15:07:40.613Z,76.00
2019-05-19T15:10:10.181Z,74.70
2019-05-19T15:12:38.969Z,73.80
2019-05-19T15:15:10.051Z,73.60
2019-05-19T15:17:39.527Z,71.30
2019-05-19T15:20:09.097Z,72.20
2019-05-19T15:22:38.002Z,71.00
2019-05-19T15:25:08.591Z,66.80
2019-05-19T15:27:37.518Z,63.20
2019-05-19T15:30:12.901Z,68.90
2019-05-19T15:32:39.412Z,67.60
2019-05-19T15:35:08.514Z,72.30
2019-05-19T15:37:37.362Z,67.30
2019-05-19T15:40:08.189Z,66.70
2019-05-19T15:42:36.963Z,59.30
2019-05-19T15:45:06.930Z,67.30
2019-05-19T15:47:35.829Z,62.70
2019-05-19T15:50:06.887Z,62.30
2019-05-19T15:52:35.768Z,60.80
2019-05-19T15:55:05.854Z,61.90
2019-05-19T15:57:35.156Z,63.50
2019-05-19T16:00:06.584Z,60.50
2019-05-19T16:02:35.494Z,58.20
2019-05-19T16:05:06.900Z,60.50
2019-05-19T16:07:35.760Z,65.00
2019-05-19T16:10:07.988Z,65.30
2019-05-19T16:12:36.861Z,63.80
2019-05-19T16:15:07.869Z,66.60
2019-05-19T16:17:36.844Z,65.10
2019-05-19T16:20:06.989Z,67.20
2019-05-19T16:22:35.852Z,67.50
2019-05-19T16:25:16.622Z,65.60
2019-05-19T16:30:25.803Z,67.40
2019-05-19T16:32:54.663Z,67.60
2019-05-19T16:35:23.469Z,67.30
2019-05-19T16:37:52.388Z,65.40
2019-05-19T16:40:21.877Z,66.80
2019-05-19T16:42:50.844Z,65.90
2019-05-19T16:45:20.419Z,68.00
2019-05-19T16:47:49.280Z,67.40
2019-05-19T16:50:18.499Z,66.80
2019-05-19T16:52:47.399Z,68.40
2019-05-19T16:55:18.097Z,68.30
2019-05-19T16:57:46.920Z,68.90
2019-05-19T17:00:17.726Z,69.30
2019-05-19T17:02:47.037Z,69.90
2019-05-19T17:05:16.815Z,72.30
2019-05-19T17:07:45.681Z,71.00
2019-05-19T17:10:15.169Z,72.20
2019-05-19T17:12:45.028Z,71.70
2019-05-19T17:15:14.373Z,71.90
2019-05-19T17:17:43.302Z,70.80
2019-05-19T17:20:13.569Z,72.20
2019-05-19T17:22:42.465Z,73.50
2019-05-19T17:25:11.887Z,74.30
2019-05-19T17:27:41.706Z,72.90
2019-05-19T17:30:12.630Z,72.30
2019-05-19T17:32:41.452Z,72.20
2019-05-19T17:35:10.842Z,72.90
2019-05-19T17:37:39.749Z,72.80
2019-05-19T17:40:10.598Z,71.80
2019-05-19T17:42:40.418Z,72.70
2019-05-19T17:45:10.254Z,69.90
2019-05-19T17:47:39.441Z,70.80
2019-05-19T17:50:09.369Z,70.50
2019-05-19T17:52:38.187Z,71.10
2019-05-19T22:33:18.555Z,94.50
2019-05-19T22:35:47.442Z,94.60
2019-05-19T22:38:16.210Z,94.70
2019-05-19T22:40:45.083Z,94.90
2019-05-19T22:43:14.159Z,95.10
2019-05-19T22:45:43.166Z,95.40
2019-05-19T22:48:12.019Z,95.40
2019-05-19T22:50:41.042Z,95.60
2019-05-19T22:53:10.195Z,95.70
2019-05-19T22:55:38.940Z,95.90
2019-05-19T22:58:07.881Z,95.90
2019-05-19T23:00:37.415Z,95.90
2019-05-19T23:03:06.248Z,95.90
2019-05-19T23:05:35.181Z,96.10
2019-05-19T23:08:04.204Z,96.20
2019-05-19T23:10:33.018Z,96.20
2019-05-19T23:13:01.830Z,96.30
2019-05-19T23:15:30.681Z,96.30
2019-05-19T23:17:59.544Z,96.40
2019-05-19T23:20:28.438Z,96.60
2019-05-19T23:22:57.272Z,96.60
2019-05-19T23:25:26.649Z,96.60
2019-05-19T23:27:55.462Z,96.60
2019-05-19T23:30:24.371Z,96.60
2019-05-19T23:32:57.626Z,96.60
2019-05-19T23:35:26.503Z,96.70
2019-05-19T23:37:55.381Z,96.70
2019-05-19T23:40:24.306Z,96.80
2019-05-19T23:42:53.044Z,96.90
2019-05-19T23:45:21.843Z,96.90
2019-05-19T23:47:50.588Z,97.00
2019-05-19T23:50:19.529Z,97.00
2019-05-19T23:52:48.341Z,97.00
2019-05-19T23:55:17.215Z,97.10
2019-05-19T23:57:46.021Z,97.10
